createdAt,value
2019-01-21T00:01:42.789Z,-3.40
2019-01-21T00:04:11.136Z,-3.40
2019-01-21T00:06:38.709Z,-3.40
2019-01-21T00:09:06.309Z,-3.50
2019-01-21T00:11:33.883Z,-3.50
2019-01-21T00:14:01.491Z,-3.50
2019-01-21T00:16:29.065Z,-3.60
2019-01-21T00:18:57.410Z,-3.60
2019-01-21T00:21:25.020Z,-3.60
2019-01-21T00:23:53.653Z,-3.70
2019-01-21T00:26:21.272Z,-3.70
2019-01-21T00:28:49.616Z,-3.70
2019-01-21T00:31:17.207Z,-3.80
2019-01-21T00:33:45.574Z,-3.60
2019-01-21T00:36:13.152Z,-3.70
2019-01-21T00:38:41.531Z,-3.70
2019-01-21T00:41:09.879Z,-3.70
2019-01-21T00:43:37.458Z,-3.80
2019-01-21T00:46:05.058Z,-3.80
2019-01-21T00:48:32.633Z,-3.80
2019-01-21T00:51:00.253Z,-3.80
2019-01-21T00:53:28.595Z,-3.90
2019-01-21T00:55:56.171Z,-3.90
2019-01-21T00:58:23.765Z,-3.90
2019-01-21T01:00:52.111Z,-3.90
2019-01-21T01:03:20.264Z,-3.90
2019-01-21T01:05:47.842Z,-4.00
2019-01-21T01:08:29.398Z,-4.00
2019-01-21T01:10:56.975Z,-4.00
2019-01-21T01:13:24.554Z,-4.00
2019-01-21T01:15:52.153Z,-4.00
2019-01-21T01:18:20.493Z,-4.00
2019-01-21T01:20:48.109Z,-4.00
2019-01-21T01:23:15.685Z,-4.00
2019-01-21T01:25:43.314Z,-4.00
2019-01-21T01:28:11.680Z,-4.00
2019-01-21T01:30:39.259Z,-4.00
2019-01-21T01:33:07.637Z,-4.00
2019-01-21T01:35:35.986Z,-4.10
2019-01-21T01:38:03.561Z,-4.10
2019-01-21T01:40:31.162Z,-4.10
2019-01-21T01:42:58.748Z,-4.20
2019-01-21T01:45:26.361Z,-4.20
2019-01-21T01:47:54.707Z,-4.30
2019-01-21T01:50:22.279Z,-4.30
2019-01-21T01:52:49.877Z,-4.30
2019-01-21T01:55:17.452Z,-4.40
2019-01-21T01:57:45.063Z,-4.20
2019-01-21T02:00:12.643Z,-4.20
2019-01-21T02:02:40.242Z,-4.30
2019-01-21T02:05:07.824Z,-4.30
2019-01-21T02:07:35.398Z,-4.30
2019-01-21T02:10:03.019Z,-4.40
2019-01-21T02:12:30.608Z,-4.40
2019-01-21T02:14:58.190Z,-4.30
2019-01-21T02:17:25.788Z,-4.20
2019-01-21T02:19:53.372Z,-4.20
2019-01-21T02:22:21.003Z,-4.20
2019-01-21T02:24:49.350Z,-4.40
2019-01-21T02:27:16.929Z,-4.40
2019-01-21T02:29:50.623Z,-4.40
2019-01-21T02:32:18.199Z,-4.30
2019-01-21T02:34:48.696Z,-4.30
2019-01-21T02:37:37.442Z,-4.40
2019-01-21T02:40:20.060Z,-4.40
2019-01-21T02:42:50.442Z,-4.50
2019-01-21T02:45:42.299Z,-4.50
2019-01-21T02:48:13.019Z,-4.60
2019-01-21T02:50:40.593Z,-4.60
2019-01-21T02:53:26.213Z,-4.60
2019-01-21T02:56:02.705Z,-4.60
2019-01-21T02:58:57.893Z,-4.60
2019-01-21T03:01:49.607Z,-4.60
2019-01-21T03:04:38.080Z,-4.70
2019-01-21T03:07:17.208Z,-4.50
2019-01-21T03:10:02.206Z,-4.40
2019-01-21T03:12:47.298Z,-4.30
2019-01-21T03:15:29.772Z,-4.30
2019-01-21T03:20:59.090Z,-4.30
2019-01-21T03:23:29.357Z,-4.30
2019-01-21T03:26:05.405Z,-4.30
2019-01-21T03:28:42.472Z,-4.30
2019-01-21T03:31:24.769Z,-4.30
2019-01-21T03:34:22.354Z,-4.40
2019-01-21T03:37:11.561Z,-4.50
2019-01-21T03:40:09.658Z,-4.60
2019-01-21T03:42:43.037Z,-4.60
2019-01-21T03:45:28.990Z,-4.70
2019-01-21T03:48:00.098Z,-4.70
2019-01-21T03:51:04.844Z,-4.70
2019-01-21T03:53:44.283Z,-4.70
2019-01-21T03:56:11.898Z,-4.80
2019-01-21T03:58:45.209Z,-4.70
2019-01-21T04:01:18.660Z,-4.70
2019-01-21T04:03:54.825Z,-4.70
2019-01-21T04:06:23.212Z,-4.70
2019-01-21T04:09:09.440Z,-4.80
2019-01-21T04:11:46.193Z,-4.80
2019-01-21T04:14:38.965Z,-4.80
2019-01-21T04:17:15.665Z,-4.90
2019-01-21T04:19:49.150Z,-4.90
2019-01-21T04:22:28.133Z,-4.90
2019-01-21T04:25:04.209Z,-5.00
2019-01-21T04:27:53.432Z,-5.00
2019-01-21T04:30:23.856Z,-5.00
2019-01-21T04:33:15.187Z,-5.00
2019-01-21T04:35:45.300Z,-5.10
2019-01-21T04:38:27.967Z,-5.10
2019-01-21T04:40:58.733Z,-5.10
2019-01-21T04:43:31.611Z,-5.10
2019-01-21T04:46:01.874Z,-5.10
2019-01-21T04:48:41.407Z,-5.10
2019-01-21T04:51:09.026Z,-5.10
2019-01-21T04:53:42.832Z,-5.10
2019-01-21T04:56:28.288Z,-5.10
2019-01-21T04:59:14.428Z,-5.20
2019-01-21T05:02:07.168Z,-5.20
2019-01-21T05:04:52.836Z,-5.20
2019-01-21T05:07:40.159Z,-5.30
2019-01-21T05:10:19.899Z,-5.30
2019-01-21T05:13:02.950Z,-5.30
2019-01-21T05:15:32.961Z,-5.30
2019-01-21T05:18:31.235Z,-5.30
2019-01-21T05:21:04.762Z,-5.20
2019-01-21T05:23:53.867Z,-5.20
2019-01-21T05:26:26.993Z,-5.20
2019-01-21T05:29:10.418Z,-5.20
2019-01-21T05:31:41.783Z,-5.20
2019-01-21T05:34:12.740Z,-5.30
2019-01-21T05:36:40.344Z,-5.30
2019-01-21T05:39:19.908Z,-5.30
2019-01-21T05:41:54.266Z,-5.30
2019-01-21T05:44:31.058Z,-5.30
2019-01-21T05:47:04.975Z,-5.30
2019-01-21T05:49:53.622Z,-5.30
2019-01-21T05:52:23.963Z,-5.30
2019-01-21T05:54:51.541Z,-5.40
2019-01-21T05:57:24.743Z,-5.40
2019-01-21T06:00:01.599Z,-5.40
2019-01-21T06:02:43.935Z,-5.40
2019-01-21T06:05:17.475Z,-5.20
2019-01-21T06:07:47.748Z,-5.20
2019-01-21T06:10:18.009Z,-5.10
2019-01-21T06:12:48.066Z,-5.20
2019-01-21T06:15:24.083Z,-5.00
2019-01-21T06:17:52.996Z,-5.10
2019-01-21T06:20:29.071Z,-5.10
2019-01-21T06:22:56.697Z,-5.20
2019-01-21T06:25:45.835Z,-5.20
2019-01-21T06:28:25.262Z,-5.20
2019-01-21T06:31:10.603Z,-5.30
2019-01-21T06:33:58.789Z,-5.30
2019-01-21T06:36:26.338Z,-5.30
2019-01-21T06:39:02.758Z,-5.30
2019-01-21T06:41:54.175Z,-5.40
2019-01-21T06:44:31.517Z,-5.40
2019-01-21T06:47:14.042Z,-5.40
2019-01-21T06:50:09.056Z,-5.40
2019-01-21T06:52:42.216Z,-5.50
2019-01-21T06:55:24.363Z,-5.30
2019-01-21T06:57:55.807Z,-5.10
2019-01-21T07:00:23.391Z,-5.10
2019-01-21T07:03:25.632Z,-5.20
2019-01-21T07:05:55.968Z,-5.20
2019-01-21T07:08:38.867Z,-5.30
2019-01-21T07:11:27.926Z,-5.30
2019-01-21T07:13:58.293Z,-5.40
2019-01-21T07:16:46.528Z,-5.50
2019-01-21T07:19:22.980Z,-5.60
2019-01-21T07:21:50.566Z,-5.70
2019-01-21T07:24:18.910Z,-5.50
2019-01-21T07:26:58.394Z,-5.60
2019-01-21T07:29:44.415Z,-5.60
2019-01-21T07:32:21.219Z,-5.60
2019-01-21T07:34:51.490Z,-5.60
2019-01-21T07:37:38.051Z,-5.70
2019-01-21T07:40:11.402Z,-5.70
2019-01-21T07:42:48.845Z,-5.70
2019-01-21T07:45:34.570Z,-5.70
2019-01-21T07:48:02.949Z,-5.70
2019-01-21T07:50:37.078Z,-5.70
2019-01-21T07:53:32.430Z,-5.70
2019-01-21T07:56:08.680Z,-5.70
2019-01-21T07:59:04.233Z,-5.70
2019-01-21T08:01:31.819Z,-5.70
2019-01-21T08:04:20.508Z,-5.70
2019-01-21T08:07:02.825Z,-5.60
2019-01-21T08:09:51.667Z,-5.60
2019-01-21T08:12:43.133Z,-5.60
2019-01-21T08:15:17.342Z,-5.50
2019-01-21T08:17:50.583Z,-5.40
2019-01-21T08:20:20.573Z,-5.20
2019-01-21T08:23:16.397Z,-5.10
2019-01-21T08:25:46.784Z,-5.00
2019-01-21T08:28:35.835Z,-5.00
2019-01-21T08:31:03.413Z,-5.00
2019-01-21T08:33:58.286Z,-4.90
2019-01-21T08:36:47.647Z,-4.80
2019-01-21T08:39:34.388Z,-4.70
2019-01-21T08:42:20.225Z,-4.70
2019-01-21T08:44:47.837Z,-4.70
2019-01-21T08:47:20.818Z,-4.60
2019-01-21T08:50:06.083Z,-4.50
2019-01-21T08:52:49.569Z,-4.50
2019-01-21T08:55:17.190Z,-4.50
2019-01-21T08:57:47.449Z,-4.40
2019-01-21T09:00:26.588Z,-4.40
2019-01-21T09:03:02.570Z,-4.30
2019-01-21T09:05:30.178Z,-4.20
2019-01-21T09:08:15.793Z,-3.90
2019-01-21T09:10:49.311Z,-3.60
2019-01-21T09:13:25.346Z,-3.30
2019-01-21T09:15:55.829Z,-3.20
2019-01-21T09:18:30.015Z,-3.10
2019-01-21T09:21:06.018Z,-3.10
2019-01-21T09:23:33.598Z,-3.10
2019-01-21T09:26:03.786Z,-3.10
2019-01-21T09:28:33.967Z,-3.10
2019-01-21T09:31:25.582Z,-3.00
2019-01-21T09:34:12.741Z,-3.00
2019-01-21T09:36:42.928Z,-3.00
2019-01-21T09:39:16.405Z,-3.00
2019-01-21T09:41:52.697Z,-3.00
2019-01-21T09:44:20.290Z,-3.00
2019-01-21T09:46:47.381Z,-3.00
2019-01-21T09:49:14.505Z,-3.00
2019-01-21T09:51:45.523Z,-2.90
2019-01-21T09:54:13.121Z,-2.90
2019-01-21T09:56:41.465Z,-2.70
2019-01-21T09:59:09.045Z,-2.80
2019-01-21T10:01:37.488Z,-2.40
2019-01-21T10:04:05.070Z,-2.50
2019-01-21T10:06:32.644Z,-2.30
2019-01-21T10:09:09.170Z,-2.20
2019-01-21T10:11:45.794Z,-2.20
2019-01-21T10:14:19.083Z,-2.10
2019-01-21T10:16:52.206Z,-2.10
2019-01-21T10:19:22.734Z,-2.00
2019-01-21T10:21:52.936Z,-2.00
2019-01-21T10:24:57.693Z,-1.80
2019-01-21T10:27:39.792Z,-1.80
2019-01-21T10:30:10.092Z,-1.70
2019-01-21T10:32:58.773Z,-1.70
2019-01-21T10:35:53.335Z,-1.60
2019-01-21T10:38:57.279Z,-1.60
2019-01-21T10:41:31.630Z,-1.50
2019-01-21T10:43:59.220Z,-1.50
2019-01-21T10:46:36.401Z,-1.40
2019-01-21T10:49:15.968Z,-1.30
2019-01-21T10:51:44.380Z,-1.20
2019-01-21T10:54:11.959Z,-1.20
2019-01-21T10:56:45.286Z,-1.10
2019-01-21T10:59:40.254Z,-1.00
2019-01-21T11:02:13.733Z,-0.80
2019-01-21T11:04:44.099Z,-0.60
2019-01-21T11:07:20.350Z,-0.50
2019-01-21T11:09:47.964Z,-0.30
2019-01-21T11:12:21.577Z,-0.30
2019-01-21T11:15:01.819Z,-0.20
2019-01-21T11:17:35.574Z,-0.20
2019-01-21T11:20:24.371Z,-0.20
2019-01-21T11:22:51.950Z,0.00
2019-01-21T11:25:40.772Z,0.10
2019-01-21T11:28:08.311Z,0.20
2019-01-21T11:30:43.325Z,0.30
2019-01-21T11:33:10.917Z,0.30
2019-01-21T11:35:56.395Z,0.30
2019-01-21T11:38:27.458Z,0.40
2019-01-21T11:40:55.042Z,0.40
2019-01-21T11:43:40.591Z,0.40
2019-01-21T11:46:25.793Z,0.40
2019-01-21T11:48:55.966Z,0.40
2019-01-21T11:51:35.211Z,0.50
2019-01-21T11:54:02.821Z,0.70
2019-01-21T11:56:39.708Z,0.70
2019-01-21T11:59:10.235Z,0.80
2019-01-21T12:01:40.514Z,1.00
2019-01-21T12:04:08.096Z,1.00
2019-01-21T12:06:41.029Z,1.10
2019-01-21T12:09:09.380Z,1.30
2019-01-21T12:11:42.607Z,1.30
2019-01-21T12:14:16.294Z,1.50
2019-01-21T12:16:58.781Z,1.40
2019-01-21T12:19:43.761Z,1.50
2019-01-21T12:22:26.148Z,1.50
2019-01-21T12:24:53.734Z,1.40
2019-01-21T12:27:30.078Z,1.60
2019-01-21T12:30:21.747Z,1.60
2019-01-21T12:33:02.130Z,1.60
2019-01-21T12:35:32.422Z,1.50
2019-01-21T12:38:18.846Z,1.60
2019-01-21T12:40:50.131Z,1.60
2019-01-21T12:43:36.354Z,1.60
2019-01-21T12:46:15.860Z,1.60
2019-01-21T12:48:54.823Z,1.60
2019-01-21T12:51:34.113Z,1.70
2019-01-21T12:54:29.194Z,1.70
2019-01-21T12:57:11.475Z,1.90
2019-01-21T12:59:41.925Z,2.00
2019-01-21T13:02:16.408Z,2.10
2019-01-21T13:04:55.732Z,2.00
2019-01-21T13:07:23.305Z,2.10
2019-01-21T13:10:24.770Z,2.20
2019-01-21T13:13:16.780Z,2.30
2019-01-21T13:15:47.132Z,2.30
2019-01-21T13:18:23.511Z,2.30
2019-01-21T13:21:08.942Z,2.40
2019-01-21T13:23:36.527Z,2.40
2019-01-21T13:26:04.106Z,2.40
2019-01-21T13:28:31.713Z,2.50
2019-01-21T13:31:11.602Z,2.40
2019-01-21T13:33:57.568Z,2.40
2019-01-21T13:36:30.823Z,2.50
2019-01-21T13:39:10.811Z,2.50
2019-01-21T13:42:05.826Z,2.50
2019-01-21T13:44:51.886Z,2.60
2019-01-21T13:47:50.729Z,2.60
2019-01-21T13:50:30.201Z,2.60
2019-01-21T13:53:09.632Z,2.60
2019-01-21T13:55:42.841Z,2.60
2019-01-21T13:58:21.899Z,2.60
2019-01-21T14:01:07.941Z,2.70
2019-01-21T14:03:46.796Z,2.70
2019-01-21T14:06:20.186Z,2.70
2019-01-21T14:09:18.045Z,2.70
2019-01-21T14:11:51.412Z,2.70
2019-01-21T14:14:21.471Z,2.70
2019-01-21T14:16:54.312Z,2.80
2019-01-21T14:19:30.493Z,2.90
2019-01-21T14:22:06.405Z,2.80
2019-01-21T14:24:37.378Z,2.80
2019-01-21T14:27:07.494Z,2.80
2019-01-21T14:29:49.861Z,2.70
2019-01-21T14:32:23.064Z,2.70
2019-01-21T14:35:06.982Z,2.70
2019-01-21T14:37:40.262Z,2.70
2019-01-21T14:40:26.705Z,2.70
2019-01-21T14:43:09.849Z,2.70
2019-01-21T14:45:49.346Z,2.70
2019-01-21T14:48:31.510Z,2.70
2019-01-21T14:51:07.496Z,2.70
2019-01-21T14:53:52.860Z,2.90
2019-01-21T14:56:38.363Z,2.90
2019-01-21T14:59:14.533Z,2.90
2019-01-21T15:01:47.695Z,3.10
2019-01-21T15:04:33.565Z,3.10
2019-01-21T15:07:01.999Z,3.20
2019-01-21T15:09:30.545Z,3.20
2019-01-21T15:12:15.783Z,3.20
2019-01-21T15:14:58.584Z,3.20
2019-01-21T15:17:31.989Z,3.10
2019-01-21T15:19:59.639Z,3.00
2019-01-21T15:22:39.473Z,3.30
2019-01-21T15:25:08.979Z,3.30
2019-01-21T15:27:43.950Z,3.30
2019-01-21T15:30:38.585Z,3.20
2019-01-21T15:33:12.398Z,3.30
2019-01-21T15:35:54.795Z,3.20
2019-01-21T15:38:34.194Z,3.10
2019-01-21T15:41:10.768Z,3.00
2019-01-21T15:43:44.217Z,3.00
2019-01-21T15:46:26.532Z,3.00
2019-01-21T15:48:56.929Z,2.90
2019-01-21T15:51:33.470Z,2.90
2019-01-21T15:54:03.733Z,2.80
2019-01-21T15:56:43.269Z,2.70
2019-01-21T15:59:10.889Z,2.70
2019-01-21T16:01:38.474Z,2.60
2019-01-21T16:04:06.812Z,2.60
2019-01-21T16:06:52.684Z,2.50
2019-01-21T16:09:56.738Z,2.50
2019-01-21T16:12:36.572Z,2.30
2019-01-21T16:15:06.843Z,2.10
2019-01-21T16:17:40.468Z,2.10
2019-01-21T16:20:08.079Z,2.10
2019-01-21T16:22:36.384Z,1.90
2019-01-21T16:25:13.472Z,1.90
2019-01-21T16:27:53.706Z,1.80
2019-01-21T16:30:33.287Z,1.80
2019-01-21T16:33:03.825Z,1.70
2019-01-21T16:35:31.416Z,1.50
2019-01-21T16:37:59.010Z,1.40
2019-01-21T16:40:38.446Z,1.40
2019-01-21T16:43:06.021Z,1.30
2019-01-21T16:45:34.403Z,1.10
2019-01-21T16:48:01.969Z,1.10
2019-01-21T16:50:30.389Z,1.00
2019-01-21T16:52:57.972Z,1.00
2019-01-21T16:55:25.549Z,1.00
2019-01-21T16:57:53.143Z,0.90
2019-01-21T17:00:20.726Z,0.90
2019-01-21T17:02:48.347Z,0.90
2019-01-21T17:05:16.696Z,0.90
2019-01-21T17:07:44.267Z,0.90
2019-01-21T17:10:11.857Z,0.90
2019-01-21T17:12:39.429Z,1.00
2019-01-21T17:15:07.055Z,0.90
2019-01-21T17:17:34.630Z,0.80
2019-01-21T17:20:02.214Z,0.70
2019-01-21T17:22:31.025Z,0.60
2019-01-21T17:24:58.931Z,0.50
2019-01-21T17:27:26.544Z,0.50
2019-01-21T17:29:54.125Z,0.50
2019-01-21T17:32:21.714Z,0.60
2019-01-21T17:34:49.314Z,0.70
2019-01-21T17:37:17.655Z,0.70
2019-01-21T17:39:45.280Z,0.70
2019-01-21T17:42:12.862Z,0.60
2019-01-21T17:44:40.464Z,0.40
2019-01-21T17:47:08.044Z,0.30
2019-01-21T17:49:36.382Z,0.10
2019-01-21T17:52:04.006Z,0.10
2019-01-21T17:54:34.938Z,0.00
2019-01-21T17:56:59.164Z,0.00
2019-01-21T17:59:26.762Z,-0.10
2019-01-21T18:01:55.119Z,-0.10
2019-01-21T18:04:23.705Z,-0.10
2019-01-21T18:06:51.276Z,0.10
2019-01-21T18:09:18.848Z,0.20
2019-01-21T18:11:47.214Z,0.00
2019-01-21T18:14:14.793Z,-0.10
2019-01-21T18:16:43.197Z,-0.10
2019-01-21T18:19:10.772Z,-0.10
2019-01-21T18:21:40.183Z,0.00
2019-01-21T18:24:05.955Z,-0.10
2019-01-21T18:26:34.702Z,-0.40
2019-01-21T18:29:02.354Z,-0.40
2019-01-21T18:31:29.933Z,-0.50
2019-01-21T18:33:57.512Z,-0.50
2019-01-21T18:36:25.125Z,-0.60
2019-01-21T18:38:52.714Z,-0.70
2019-01-21T18:41:20.326Z,-0.60
2019-01-21T18:43:48.683Z,-0.80
2019-01-21T18:46:16.274Z,-0.80
2019-01-21T18:48:44.647Z,-1.00
2019-01-21T18:51:12.216Z,-1.00
2019-01-21T18:53:39.793Z,-1.10
2019-01-21T18:56:07.429Z,-1.10
2019-01-21T18:58:34.973Z,-1.20
2019-01-21T19:01:02.559Z,-1.20
2019-01-21T19:03:30.989Z,-1.30
2019-01-21T19:05:58.567Z,-1.30
2019-01-21T19:08:26.149Z,-1.30
2019-01-21T19:10:54.572Z,-1.30
2019-01-21T19:13:23.177Z,-1.30
2019-01-21T19:15:50.747Z,-1.20
2019-01-21T19:18:18.371Z,-1.30
2019-01-21T19:20:45.956Z,-1.30
2019-01-21T19:23:13.545Z,-1.20
2019-01-21T19:25:41.159Z,-1.20
2019-01-21T19:28:08.747Z,-1.30
2019-01-21T19:30:36.366Z,-1.30
2019-01-21T19:33:03.959Z,-1.30
2019-01-21T19:35:31.541Z,-1.50
2019-01-21T19:37:59.172Z,-1.60
2019-01-21T19:40:26.720Z,-1.80
2019-01-21T19:42:54.351Z,-1.80
2019-01-21T19:45:21.930Z,-1.80
2019-01-21T19:47:50.274Z,-1.90
2019-01-21T19:50:17.893Z,-1.90
2019-01-21T19:52:45.473Z,-1.90
2019-01-21T19:55:16.522Z,-1.90
2019-01-21T19:57:44.099Z,-2.00
2019-01-21T20:00:17.793Z,-2.00
2019-01-21T20:02:45.393Z,-2.10
2019-01-21T20:05:13.738Z,-2.00
2019-01-21T20:07:41.358Z,-2.00
2019-01-21T20:10:08.956Z,-2.10
2019-01-21T20:12:36.536Z,-2.00
2019-01-21T20:15:04.128Z,-2.10
2019-01-21T20:17:31.720Z,-2.20
2019-01-21T20:19:59.354Z,-2.10
2019-01-21T20:22:27.695Z,-2.20
2019-01-21T20:24:55.276Z,-2.20
2019-01-21T20:27:22.883Z,-2.30
2019-01-21T20:29:50.468Z,-2.40
2019-01-21T20:32:18.085Z,-2.40
2019-01-21T20:34:46.441Z,-2.50
2019-01-21T20:37:14.022Z,-2.50
2019-01-21T20:39:42.397Z,-2.60
2019-01-21T20:42:10.742Z,-2.60
2019-01-21T20:44:38.370Z,-2.60
2019-01-21T20:47:05.946Z,-2.60
2019-01-21T20:49:33.527Z,-2.70
2019-01-21T20:52:01.129Z,-2.70
2019-01-21T20:54:29.471Z,-2.70
2019-01-21T20:56:57.140Z,-2.70
2019-01-21T20:59:24.710Z,-2.70
2019-01-21T21:01:52.294Z,-2.80
2019-01-21T21:04:20.666Z,-2.50
2019-01-21T21:06:48.241Z,-2.50
2019-01-21T21:09:15.867Z,-2.40
2019-01-21T21:11:43.441Z,-2.50
2019-01-21T21:14:11.014Z,-2.60
2019-01-21T21:16:39.377Z,-2.80
2019-01-21T21:19:06.957Z,-2.80
2019-01-21T21:21:35.616Z,-3.00
2019-01-21T21:24:03.198Z,-3.00
2019-01-21T21:26:30.779Z,-3.00
2019-01-21T21:28:58.386Z,-3.10
2019-01-21T21:31:25.961Z,-3.10
2019-01-21T21:33:53.589Z,-3.20
2019-01-21T21:36:21.167Z,-3.20
2019-01-21T21:38:48.765Z,-3.30
2019-01-21T21:41:16.365Z,-3.30
2019-01-21T21:43:43.942Z,-3.30
2019-01-21T21:46:11.568Z,-3.20
2019-01-21T21:48:39.906Z,-3.20
2019-01-21T21:51:07.491Z,-3.20
2019-01-21T21:53:35.100Z,-3.30
2019-01-21T21:56:02.679Z,-3.30
2019-01-21T21:58:31.070Z,-3.40
2019-01-21T22:00:58.648Z,-3.50
2019-01-21T22:03:26.226Z,-3.60
2019-01-21T22:05:54.594Z,-3.50
2019-01-21T22:08:22.173Z,-3.50
2019-01-21T22:10:50.913Z,-3.70
2019-01-21T22:13:18.493Z,-3.70
2019-01-21T22:15:46.065Z,-3.70
2019-01-21T22:18:13.690Z,-3.80
2019-01-21T22:20:41.272Z,-3.60
2019-01-21T22:23:08.851Z,-3.60
2019-01-21T22:25:36.454Z,-3.70
2019-01-21T22:28:04.021Z,-3.70
2019-01-21T22:30:31.618Z,-3.80
2019-01-21T22:32:59.193Z,-3.80
2019-01-21T22:35:26.819Z,-3.90
2019-01-21T22:37:54.393Z,-3.90
2019-01-21T22:40:21.967Z,-4.00
2019-01-21T22:42:49.577Z,-4.00
2019-01-21T22:45:17.219Z,-4.00
2019-01-21T22:47:45.571Z,-3.80
2019-01-21T22:50:13.214Z,-3.80
2019-01-21T22:52:41.935Z,-3.80
2019-01-21T22:55:08.364Z,-3.80
2019-01-21T22:57:35.992Z,-3.90
2019-01-21T23:00:03.592Z,-4.00
2019-01-21T23:02:31.177Z,-3.90
2019-01-21T23:04:59.548Z,-3.50
2019-01-21T23:07:27.891Z,-3.60
2019-01-21T23:09:55.503Z,-3.60
2019-01-21T23:12:23.845Z,-3.90
2019-01-21T23:14:51.415Z,-3.90
2019-01-21T23:17:19.014Z,-4.00
2019-01-21T23:19:46.594Z,-4.00
2019-01-21T23:22:14.199Z,-4.00
2019-01-21T23:24:41.791Z,-3.90
2019-01-21T23:27:10.132Z,-3.90
2019-01-21T23:29:37.729Z,-3.90
2019-01-21T23:32:06.079Z,-4.00
2019-01-21T23:34:34.453Z,-4.00
2019-01-21T23:37:02.029Z,-4.10
2019-01-21T23:41:33.924Z,-4.10
2019-01-21T23:44:03.177Z,-3.80
2019-01-21T23:46:30.782Z,-3.80
2019-01-21T23:48:59.129Z,-4.00
2019-01-21T23:51:26.703Z,-4.00
2019-01-21T23:53:54.306Z,-4.10
2019-01-21T23:56:21.882Z,-4.00
2019-01-21T23:58:49.498Z,-4.10
